createdAt,value
2019-05-26T00:00:13.334Z,12.07
2019-05-26T00:02:43.667Z,11.97
2019-05-26T00:05:13.552Z,13.27
2019-05-26T00:07:45.641Z,15.60
2019-05-26T00:10:15.309Z,13.53
2019-05-26T00:12:44.761Z,13.03
2019-05-26T00:15:14.574Z,11.87
2019-05-26T00:17:44.078Z,14.37
2019-05-26T00:20:14.836Z,15.70
2019-05-26T00:22:44.304Z,11.63
2019-05-26T00:25:14.474Z,15.80
2019-05-26T00:27:43.932Z,9.30
2019-05-26T00:30:13.973Z,13.53
2019-05-26T00:32:43.446Z,13.10
2019-05-26T00:35:13.378Z,12.57
2019-05-26T00:37:49.870Z,13.37
2019-05-26T00:40:14.807Z,16.77
2019-05-26T00:42:44.360Z,13.20
2019-05-26T00:45:13.961Z,13.57
2019-05-26T00:47:43.466Z,12.77
2019-05-26T00:50:15.007Z,13.07
2019-05-26T00:52:44.491Z,13.90
2019-05-26T00:55:14.732Z,16.23
2019-05-26T00:57:44.211Z,13.87
2019-05-26T01:00:14.040Z,13.43
2019-05-26T01:02:43.785Z,14.47
2019-05-26T01:05:13.958Z,14.00
2019-05-26T01:07:43.613Z,19.73
2019-05-26T01:10:13.433Z,17.40
2019-05-26T01:12:43.566Z,15.20
2019-05-26T01:15:13.442Z,15.53
2019-05-26T01:17:43.190Z,12.97
2019-05-26T01:20:13.362Z,16.70
2019-05-26T01:22:43.094Z,15.07
2019-05-26T01:25:12.748Z,15.10
2019-05-26T01:27:42.698Z,12.57
2019-05-26T01:30:12.516Z,14.33
2019-05-26T01:32:42.156Z,17.83
2019-05-26T01:35:12.880Z,14.83
2019-05-26T01:37:43.387Z,13.47
2019-05-26T01:40:13.298Z,15.17
2019-05-26T01:42:43.164Z,16.30
2019-05-26T01:45:12.717Z,14.73
2019-05-26T01:47:42.489Z,16.53
2019-05-26T01:50:12.208Z,14.67
2019-05-26T01:52:41.765Z,15.87
2019-05-26T01:55:11.281Z,16.03
2019-05-26T01:57:40.791Z,14.70
2019-05-26T02:00:10.666Z,14.47
2019-05-26T02:02:40.231Z,16.10
2019-05-26T02:05:09.761Z,14.97
2019-05-26T02:07:39.268Z,16.10
2019-05-26T02:10:08.811Z,16.53
2019-05-26T02:12:38.624Z,16.77
2019-05-26T02:15:08.570Z,17.60
2019-05-26T02:17:38.521Z,14.93
2019-05-26T02:20:09.206Z,13.60
2019-05-26T02:22:39.032Z,17.23
2019-05-26T02:25:09.439Z,16.87
2019-05-26T02:27:39.242Z,16.07
2019-05-26T02:30:10.123Z,19.57
2019-05-26T02:32:39.666Z,19.60
2019-05-26T02:35:09.574Z,18.73
2019-05-26T02:37:39.062Z,16.90
2019-05-26T02:40:09.532Z,18.50
2019-05-26T02:42:39.251Z,17.67
2019-05-26T02:45:12.158Z,18.50
2019-05-26T02:47:41.636Z,18.80
2019-05-26T02:50:11.325Z,19.97
2019-05-26T02:52:41.205Z,22.80
2019-05-26T02:55:11.396Z,19.10
2019-05-26T02:57:41.243Z,21.67
2019-05-26T03:00:13.981Z,23.33
2019-05-26T03:02:43.758Z,19.77
2019-05-26T03:05:13.862Z,23.17
2019-05-26T03:07:43.847Z,21.77
2019-05-26T03:10:16.439Z,22.87
2019-05-26T03:12:47.457Z,20.83
2019-05-26T03:15:16.982Z,21.70
2019-05-26T03:17:48.113Z,21.93
2019-05-26T03:20:18.017Z,22.37
2019-05-26T03:22:49.310Z,21.30
2019-05-26T03:25:18.736Z,18.37
2019-05-26T03:27:48.541Z,22.67
2019-05-26T03:30:19.180Z,21.40
2019-05-26T03:32:49.200Z,21.70
2019-05-26T03:35:18.895Z,18.97
2019-05-26T03:37:48.353Z,22.20
2019-05-26T03:40:17.905Z,22.43
2019-05-26T03:42:47.389Z,22.33
2019-05-26T03:45:41.445Z,20.87
2019-05-26T03:48:11.401Z,23.07
2019-05-26T03:50:40.893Z,23.40
2019-05-26T03:56:22.850Z,23.47
2019-05-26T03:58:52.503Z,22.43
2019-05-26T04:01:22.146Z,20.37
2019-05-26T04:03:51.637Z,20.83
2019-05-26T04:06:21.382Z,18.00
2019-05-26T04:08:50.875Z,20.47
2019-05-26T04:11:20.357Z,19.70
2019-05-26T04:13:49.862Z,19.00
2019-05-26T04:16:19.373Z,19.43
2019-05-26T04:18:48.863Z,21.93
2019-05-26T04:21:18.343Z,20.33
2019-05-26T04:23:47.829Z,20.93
2019-05-26T04:26:17.296Z,19.73
2019-05-26T04:28:46.838Z,20.63
2019-05-26T04:31:20.111Z,19.53
2019-05-26T04:33:49.583Z,19.63
2019-05-26T04:36:19.069Z,20.93
2019-05-26T04:38:48.577Z,20.47
2019-05-26T04:41:18.076Z,20.13
2019-05-26T04:43:47.553Z,18.97
2019-05-26T04:46:17.320Z,19.60
2019-05-26T04:48:46.947Z,19.23
2019-05-26T04:51:16.464Z,21.13
2019-05-26T04:53:45.921Z,21.03
2019-05-26T04:56:15.401Z,22.10
2019-05-26T04:58:44.923Z,22.17
2019-05-26T05:01:30.705Z,20.67
2019-05-26T05:04:06.784Z,21.10
2019-05-26T05:06:42.295Z,17.83
2019-05-26T05:09:16.837Z,19.70
2019-05-26T05:12:08.778Z,20.10
2019-05-26T05:14:38.268Z,18.00
2019-05-26T05:17:07.748Z,22.37
2019-05-26T05:19:37.232Z,23.30
2019-05-26T05:22:06.710Z,19.67
2019-05-26T05:24:36.187Z,20.23
2019-05-26T05:27:05.668Z,19.00
2019-05-26T05:29:35.131Z,19.07
2019-05-26T05:32:04.780Z,20.63
2019-05-26T05:34:34.246Z,21.17
2019-05-26T05:37:03.741Z,14.13
2019-05-26T05:39:33.222Z,13.93
2019-05-26T05:42:02.698Z,14.77
2019-05-26T05:44:32.175Z,12.10
2019-05-26T05:47:01.665Z,12.43
2019-05-26T05:49:31.140Z,13.47
2019-05-26T05:52:00.608Z,12.80
2019-05-26T05:54:30.070Z,11.67
2019-05-26T05:56:59.548Z,10.40
2019-05-26T05:59:29.033Z,12.65
2019-05-26T06:01:58.515Z,10.87
2019-05-26T06:04:28.358Z,9.33
2019-05-26T06:06:57.834Z,8.40
2019-05-26T06:09:27.567Z,8.68
2019-05-26T06:11:57.413Z,10.38
2019-05-26T06:14:26.895Z,11.38
2019-05-26T06:16:56.374Z,9.43
2019-05-26T06:19:25.865Z,8.00
2019-05-26T06:21:55.401Z,7.70
2019-05-26T06:24:24.866Z,9.63
2019-05-26T06:26:54.356Z,6.53
2019-05-26T06:29:23.822Z,7.85
2019-05-26T06:31:53.542Z,9.05
2019-05-26T06:34:23.329Z,10.23
2019-05-26T06:36:53.126Z,7.12
2019-05-26T06:39:22.580Z,7.30
2019-05-26T06:41:52.077Z,8.55
2019-05-26T06:44:21.585Z,9.60
2019-05-26T06:46:51.085Z,5.62
2019-05-26T06:49:20.611Z,6.70
2019-05-26T06:51:50.063Z,7.42
2019-05-26T06:54:19.673Z,7.95
2019-05-26T06:56:49.499Z,7.95
2019-05-26T06:59:19.043Z,7.50
2019-05-26T07:01:48.653Z,6.05
2019-05-26T07:04:18.438Z,7.42
2019-05-26T07:06:47.903Z,5.17
2019-05-26T07:09:17.763Z,6.28
2019-05-26T07:11:57.005Z,7.58
2019-05-26T07:14:18.776Z,5.40
2019-05-26T07:16:48.303Z,4.80
2019-05-26T07:19:18.040Z,6.85
2019-05-26T07:21:47.501Z,6.20
2019-05-26T07:24:16.957Z,6.53
2019-05-26T07:26:46.414Z,5.47
2019-05-26T07:29:16.182Z,5.85
2019-05-26T07:31:45.652Z,5.03
2019-05-26T07:34:15.506Z,4.20
2019-05-26T07:36:44.951Z,5.42
2019-05-26T07:39:14.430Z,4.60
2019-05-26T07:41:43.877Z,5.03
2019-05-26T07:44:13.330Z,5.22
2019-05-26T07:46:42.790Z,4.45
2019-05-26T07:49:12.539Z,5.17
2019-05-26T07:51:42.267Z,5.40
2019-05-26T07:54:25.266Z,5.42
2019-05-26T07:56:43.238Z,4.97
2019-05-26T07:59:13.126Z,5.15
2019-05-26T08:01:42.661Z,6.80
2019-05-26T08:04:12.134Z,5.55
2019-05-26T08:06:41.774Z,6.40
2019-05-26T08:09:11.253Z,4.87
2019-05-26T08:11:40.721Z,6.25
2019-05-26T08:14:10.189Z,6.05
2019-05-26T08:16:39.649Z,7.10
2019-05-26T08:19:09.161Z,5.78
2019-05-26T08:21:38.612Z,5.67
2019-05-26T08:24:08.106Z,5.72
2019-05-26T08:26:37.581Z,6.87
2019-05-26T08:29:07.457Z,5.92
2019-05-26T08:31:37.040Z,4.78
2019-05-26T08:34:06.492Z,4.87
2019-05-26T08:36:35.987Z,7.47
2019-05-26T08:39:07.614Z,6.70
2019-05-26T08:41:37.367Z,5.67
2019-05-26T08:44:06.896Z,6.55
2019-05-26T08:46:36.351Z,7.95
2019-05-26T08:49:06.027Z,6.78
2019-05-26T08:51:35.482Z,4.70
2019-05-26T08:54:05.385Z,5.87
2019-05-26T08:56:34.835Z,5.85
2019-05-26T08:59:04.364Z,5.55
2019-05-26T09:01:33.814Z,5.40
2019-05-26T09:04:03.296Z,5.87
2019-05-26T09:06:32.741Z,9.33
2019-05-26T09:09:02.199Z,5.12
2019-05-26T09:11:31.966Z,6.05
2019-05-26T09:14:01.446Z,5.97
2019-05-26T09:16:30.904Z,6.30
2019-05-26T09:19:00.633Z,5.75
2019-05-26T09:21:30.076Z,5.25
2019-05-26T09:23:59.911Z,9.00
2019-05-26T09:26:29.361Z,6.28
2019-05-26T09:28:59.115Z,5.20
2019-05-26T09:31:28.576Z,4.78
2019-05-26T09:33:58.202Z,17.87
2019-05-26T09:36:27.936Z,5.37
2019-05-26T09:38:57.429Z,4.25
2019-05-26T09:41:26.902Z,6.80
2019-05-26T09:43:56.685Z,11.10
2019-05-26T09:46:26.083Z,6.65
2019-05-26T09:48:55.543Z,9.40
2019-05-26T09:51:25.281Z,5.78
2019-05-26T09:54:01.772Z,5.15
2019-05-26T09:56:25.910Z,8.85
2019-05-26T09:58:55.929Z,5.03
2019-05-26T10:01:25.564Z,6.35
2019-05-26T10:03:55.109Z,6.12
2019-05-26T10:06:24.509Z,4.50
2019-05-26T10:08:53.970Z,3.98
2019-05-26T10:11:23.429Z,5.72
2019-05-26T10:13:52.899Z,6.80
2019-05-26T10:16:22.389Z,4.87
2019-05-26T10:18:51.824Z,3.98
2019-05-26T10:21:21.303Z,4.50
2019-05-26T10:23:53.027Z,9.48
2019-05-26T10:26:21.978Z,6.30
2019-05-26T10:28:51.378Z,4.20
2019-05-26T10:31:21.184Z,4.72
2019-05-26T10:33:51.897Z,5.10
2019-05-26T10:36:21.374Z,5.08
2019-05-26T10:38:50.819Z,4.78
2019-05-26T10:41:20.350Z,4.45
2019-05-26T10:43:49.805Z,5.78
2019-05-26T10:46:19.547Z,7.95
2019-05-26T10:48:49.025Z,6.72
2019-05-26T10:51:18.522Z,3.50
2019-05-26T10:53:48.114Z,3.83
2019-05-26T10:56:17.838Z,6.20
2019-05-26T10:58:47.308Z,5.30
2019-05-26T11:01:16.775Z,4.03
2019-05-26T11:03:46.240Z,6.05
2019-05-26T11:06:15.951Z,4.28
2019-05-26T11:08:45.403Z,4.40
2019-05-26T11:11:14.862Z,9.38
2019-05-26T11:13:44.611Z,6.47
2019-05-26T11:16:14.139Z,4.60
2019-05-26T11:18:43.623Z,2.52
2019-05-26T11:21:13.156Z,5.55
2019-05-26T11:23:43.251Z,4.25
2019-05-26T11:26:12.728Z,6.10
2019-05-26T11:28:42.197Z,4.67
2019-05-26T11:31:11.645Z,3.55
2019-05-26T11:33:41.116Z,7.55
2019-05-26T11:36:10.579Z,7.55
2019-05-26T11:38:40.186Z,4.08
2019-05-26T11:41:09.675Z,2.92
2019-05-26T11:43:39.145Z,7.58
2019-05-26T11:46:08.597Z,6.08
2019-05-26T11:48:39.350Z,2.80
2019-05-26T11:51:09.151Z,4.60
2019-05-26T11:53:38.756Z,3.27
2019-05-26T11:56:08.176Z,2.25
2019-05-26T11:58:37.793Z,2.98
2019-05-26T12:01:07.249Z,4.67
2019-05-26T12:03:36.696Z,5.62
2019-05-26T12:06:06.154Z,3.55
2019-05-26T12:08:36.007Z,3.70
2019-05-26T12:11:05.706Z,3.95
2019-05-26T12:13:36.724Z,4.50
2019-05-26T12:16:06.317Z,3.70
2019-05-26T12:18:35.949Z,4.28
2019-05-26T12:21:05.585Z,4.40
2019-05-26T12:23:35.061Z,2.92
2019-05-26T12:26:04.877Z,2.77
2019-05-26T12:28:34.607Z,4.47
2019-05-26T12:31:04.417Z,6.20
2019-05-26T12:33:33.874Z,3.27
2019-05-26T12:36:03.326Z,3.70
2019-05-26T12:38:34.476Z,4.12
2019-05-26T12:41:04.059Z,4.58
2019-05-26T12:43:33.516Z,2.72
2019-05-26T12:46:02.983Z,5.47
2019-05-26T12:48:32.708Z,6.45
2019-05-26T12:51:02.153Z,5.70
2019-05-26T12:53:31.621Z,4.72
2019-05-26T12:56:01.441Z,3.00
2019-05-26T12:58:30.907Z,4.83
2019-05-26T13:01:00.689Z,5.97
2019-05-26T13:03:30.148Z,4.37
2019-05-26T13:05:59.688Z,4.25
2019-05-26T13:08:29.572Z,5.33
2019-05-26T13:10:59.404Z,5.20
2019-05-26T13:13:28.870Z,4.40
2019-05-26T13:15:58.320Z,2.33
2019-05-26T13:18:27.783Z,5.47
2019-05-26T13:20:57.234Z,3.12
2019-05-26T13:23:26.693Z,3.33
2019-05-26T13:25:56.507Z,2.40
2019-05-26T13:28:25.967Z,3.85
2019-05-26T13:30:57.545Z,5.08
2019-05-26T13:33:27.668Z,6.25
2019-05-26T13:35:57.156Z,3.77
2019-05-26T13:38:26.656Z,2.83
2019-05-26T13:40:56.198Z,3.35
2019-05-26T13:43:25.670Z,2.47
2019-05-26T13:45:55.108Z,6.53
2019-05-26T13:48:24.634Z,4.83
2019-05-26T13:50:54.387Z,2.87
2019-05-26T13:53:23.919Z,2.55
2019-05-26T13:55:53.414Z,4.58
2019-05-26T13:58:23.202Z,3.80
2019-05-26T14:00:52.672Z,4.65
2019-05-26T14:03:24.343Z,2.55
2019-05-26T14:05:53.570Z,3.10
2019-05-26T14:08:23.583Z,2.55
2019-05-26T14:10:53.500Z,4.08
2019-05-26T14:13:22.969Z,4.05
2019-05-26T14:15:54.614Z,3.37
2019-05-26T14:18:24.704Z,2.58
2019-05-26T14:20:54.152Z,2.85
2019-05-26T14:23:23.610Z,3.20
2019-05-26T14:25:53.130Z,2.50
2019-05-26T14:28:22.655Z,2.77
2019-05-26T14:30:52.596Z,3.27
2019-05-26T14:33:22.077Z,3.27
2019-05-26T14:35:51.698Z,3.90
2019-05-26T14:38:21.161Z,2.00
2019-05-26T14:40:50.911Z,2.70
2019-05-26T14:43:20.438Z,2.98
2019-05-26T14:45:53.667Z,4.60
2019-05-26T14:48:21.031Z,2.98
2019-05-26T14:50:50.502Z,4.17
2019-05-26T14:53:19.978Z,4.08
2019-05-26T14:55:49.436Z,3.75
2019-05-26T14:58:18.945Z,5.08
2019-05-26T15:00:48.498Z,2.95
2019-05-26T15:03:18.013Z,2.70
2019-05-26T15:05:47.941Z,2.67
2019-05-26T15:08:17.394Z,4.65
2019-05-26T15:10:46.837Z,4.35
2019-05-26T15:13:16.295Z,3.95
2019-05-26T15:15:45.997Z,3.55
2019-05-26T15:18:15.449Z,2.67
2019-05-26T15:20:44.924Z,2.42
2019-05-26T15:23:14.509Z,4.62
2019-05-26T15:25:44.017Z,3.58
2019-05-26T15:28:13.474Z,6.10
2019-05-26T15:30:43.687Z,4.08
2019-05-26T15:33:14.392Z,6.20
2019-05-26T15:35:45.081Z,2.27
2019-05-26T15:38:15.017Z,3.35
2019-05-26T15:40:44.476Z,4.62
2019-05-26T15:43:13.950Z,3.02
2019-05-26T15:45:43.415Z,5.53
2019-05-26T15:48:12.894Z,4.83
2019-05-26T15:50:42.423Z,4.25
2019-05-26T15:53:11.976Z,4.12
2019-05-26T15:55:42.697Z,7.22
2019-05-26T15:58:12.492Z,6.92
2019-05-26T16:00:42.441Z,5.05
2019-05-26T16:03:12.142Z,5.55
2019-05-26T16:05:41.873Z,4.58
2019-05-26T16:08:11.312Z,2.10
2019-05-26T16:10:40.787Z,2.47
2019-05-26T16:13:10.237Z,4.45
2019-05-26T16:15:39.700Z,2.98
2019-05-26T16:18:09.218Z,4.80
2019-05-26T16:20:38.687Z,4.62
2019-05-26T16:23:09.135Z,2.15
2019-05-26T16:25:40.603Z,3.52
2019-05-26T16:28:10.051Z,3.37
2019-05-26T16:30:41.301Z,2.62
2019-05-26T16:33:10.819Z,2.47
2019-05-26T16:35:40.329Z,1.85
2019-05-26T16:38:09.766Z,2.00
2019-05-26T16:40:39.312Z,3.72
2019-05-26T16:43:08.767Z,2.75
2019-05-26T16:45:38.247Z,2.05
2019-05-26T16:48:07.690Z,2.05
2019-05-26T16:50:37.157Z,2.67
2019-05-26T16:53:07.013Z,2.15
2019-05-26T16:55:36.447Z,3.27
2019-05-26T16:58:06.971Z,3.45
2019-05-26T17:00:36.774Z,2.58
2019-05-26T17:03:06.883Z,2.55
2019-05-26T17:05:36.950Z,2.87
2019-05-26T17:08:06.413Z,3.77
2019-05-26T17:10:35.952Z,2.72
2019-05-26T17:13:05.389Z,2.52
2019-05-26T17:15:35.813Z,3.05
2019-05-26T17:18:05.911Z,2.10
2019-05-26T17:20:35.418Z,2.40
2019-05-26T17:23:04.982Z,3.00
2019-05-26T17:25:34.440Z,2.87
2019-05-26T17:28:03.897Z,2.58
2019-05-26T17:30:33.600Z,3.90
2019-05-26T17:33:03.328Z,3.62
2019-05-26T17:35:32.781Z,3.62
2019-05-26T17:38:02.326Z,2.60
2019-05-26T17:40:31.784Z,2.87
2019-05-26T17:43:01.226Z,2.27
2019-05-26T17:45:30.690Z,3.22
2019-05-26T17:48:00.417Z,2.10
2019-05-26T17:50:29.881Z,2.50
2019-05-26T17:52:59.418Z,2.60
2019-05-26T17:55:28.946Z,2.45
2019-05-26T17:57:58.428Z,2.92
2019-05-26T18:00:28.214Z,2.50
2019-05-26T18:02:57.825Z,4.35
2019-05-26T18:05:27.457Z,3.35
2019-05-26T18:07:56.890Z,3.30
2019-05-26T18:10:26.686Z,4.00
2019-05-26T18:12:56.221Z,2.60
2019-05-26T18:15:25.699Z,4.15
2019-05-26T18:17:55.213Z,3.08
2019-05-26T18:20:24.731Z,5.70
2019-05-26T18:22:54.399Z,3.85
2019-05-26T18:25:24.136Z,3.77
2019-05-26T18:27:53.632Z,6.08
2019-05-26T18:30:23.561Z,5.42
2019-05-26T18:32:53.109Z,5.20
2019-05-26T18:35:22.553Z,5.03
2019-05-26T18:37:53.265Z,4.53
2019-05-26T18:40:22.739Z,6.70
2019-05-26T18:42:52.273Z,4.58
2019-05-26T18:45:21.988Z,5.03
2019-05-26T18:48:02.411Z,4.10
2019-05-26T18:50:22.590Z,5.70
2019-05-26T18:52:52.075Z,4.10
2019-05-26T18:55:21.527Z,4.13
2019-05-26T18:57:51.270Z,5.17
2019-05-26T19:00:22.127Z,5.03
2019-05-26T19:02:51.806Z,6.53
2019-05-26T19:05:32.815Z,19.37
2019-05-26T19:07:52.645Z,11.73
2019-05-26T19:10:22.106Z,10.23
2019-05-26T19:12:51.596Z,12.80
2019-05-26T19:15:21.148Z,11.07
2019-05-26T19:17:50.917Z,8.10
2019-05-26T19:20:20.359Z,6.27
2019-05-26T19:22:53.163Z,6.37
2019-05-26T19:25:21.148Z,4.60
2019-05-26T19:27:50.619Z,4.83
2019-05-26T19:30:20.556Z,7.73
2019-05-26T19:32:51.998Z,9.30
2019-05-26T19:35:21.420Z,7.57
2019-05-26T19:37:50.909Z,10.87
2019-05-26T19:40:20.531Z,11.33
2019-05-26T19:42:49.992Z,8.70
2019-05-26T19:45:19.457Z,7.87
2019-05-26T19:47:48.927Z,5.70
2019-05-26T19:50:18.396Z,7.90
2019-05-26T19:52:49.923Z,5.47
2019-05-26T19:55:19.087Z,6.70
2019-05-26T19:57:48.839Z,7.63
2019-05-26T20:00:18.781Z,6.10
2019-05-26T20:02:48.334Z,5.47
2019-05-26T20:05:17.972Z,5.20
2019-05-26T20:07:47.445Z,6.57
2019-05-26T20:10:17.061Z,6.03
2019-05-26T20:12:46.546Z,4.97
2019-05-26T20:15:16.431Z,7.80
2019-05-26T20:17:46.253Z,7.90
2019-05-26T20:20:15.930Z,5.17
2019-05-26T20:22:45.810Z,5.70
2019-05-26T20:25:15.442Z,8.67
2019-05-26T20:27:44.923Z,7.47
2019-05-26T20:30:14.607Z,7.33
2019-05-26T20:32:44.584Z,6.17
2019-05-26T20:35:15.111Z,6.13
2019-05-26T20:37:44.734Z,8.67
2019-05-26T20:40:14.626Z,6.33
2019-05-26T20:42:44.091Z,4.63
2019-05-26T20:45:14.203Z,4.80
2019-05-26T20:47:43.679Z,5.97
2019-05-26T20:50:28.124Z,5.70
2019-05-26T20:52:44.889Z,4.10
2019-05-26T20:55:14.686Z,5.80
2019-05-26T20:57:44.158Z,7.77
2019-05-26T21:00:15.053Z,5.90
2019-05-26T21:02:44.909Z,5.23
2019-05-26T21:05:16.476Z,7.50
2019-05-26T21:07:45.952Z,7.57
2019-05-26T21:10:15.916Z,6.73
2019-05-26T21:12:45.424Z,5.30
2019-05-26T21:15:15.633Z,5.53
2019-05-26T21:17:45.099Z,5.37
2019-05-26T21:20:16.007Z,6.63
2019-05-26T21:22:45.440Z,5.20
2019-05-26T21:25:15.637Z,5.87
2019-05-26T21:27:45.117Z,6.27
2019-05-26T21:30:15.330Z,5.93
2019-05-26T21:32:44.792Z,6.07
2019-05-26T21:35:14.854Z,6.33
2019-05-26T21:37:44.310Z,5.50
2019-05-26T21:40:15.098Z,4.27
2019-05-26T21:42:44.567Z,4.77
2019-05-26T21:45:15.405Z,8.20
2019-05-26T21:47:45.546Z,6.90
2019-05-26T21:50:16.187Z,5.47
2019-05-26T21:53:05.326Z,7.30
2019-05-26T21:55:38.812Z,7.07
2019-05-26T21:58:08.362Z,5.00
2019-05-26T22:00:39.501Z,6.13
2019-05-26T22:03:09.126Z,5.57
2019-05-26T22:05:38.580Z,5.50
2019-05-26T22:08:08.026Z,5.47
2019-05-26T22:10:37.871Z,5.83
2019-05-26T22:13:07.313Z,5.23
2019-05-26T22:15:36.846Z,7.27
2019-05-26T22:18:06.288Z,5.70
2019-05-26T22:20:36.155Z,6.23
2019-05-26T22:23:05.607Z,7.40
2019-05-26T22:25:35.060Z,6.30
2019-05-26T22:28:04.496Z,5.47
2019-05-26T22:30:33.970Z,5.40
2019-05-26T22:33:03.407Z,7.83
2019-05-26T22:35:33.107Z,6.40
2019-05-26T22:38:02.567Z,6.70
2019-05-26T22:40:32.064Z,6.47
2019-05-26T22:43:01.513Z,7.00
2019-05-26T22:45:30.978Z,6.40
2019-05-26T22:48:00.431Z,7.40
2019-05-26T22:50:29.903Z,7.13
2019-05-26T22:52:59.476Z,6.23
2019-05-26T22:55:28.981Z,7.73
2019-05-26T22:57:58.494Z,6.83
2019-05-26T23:00:28.012Z,8.07
2019-05-26T23:02:57.519Z,6.93
2019-05-26T23:05:26.929Z,6.07
2019-05-26T23:07:56.401Z,7.17
2019-05-26T23:10:26.298Z,5.67
2019-05-26T23:12:55.753Z,6.57
2019-05-26T23:15:25.624Z,5.97
2019-05-26T23:17:55.072Z,6.87
2019-05-26T23:20:24.553Z,7.20
2019-05-26T23:22:53.990Z,6.23
2019-05-26T23:25:22.611Z,7.33
2019-05-26T23:27:51.775Z,5.93
2019-05-26T23:30:21.404Z,8.77
2019-05-26T23:32:50.858Z,5.90
2019-05-26T23:35:20.347Z,6.60
2019-05-26T23:37:49.796Z,7.13
2019-05-26T23:40:19.509Z,7.03
2019-05-26T23:42:48.969Z,9.63
2019-05-26T23:45:18.453Z,5.83
2019-05-26T23:47:47.918Z,5.93
2019-05-26T23:50:17.374Z,7.87
2019-05-26T23:52:46.843Z,7.13
2019-05-26T23:55:16.302Z,7.53
2019-05-26T23:57:45.755Z,7.43
